Time;durP1;ratioP1;P1;durP2;ratioP2;P2;SDS_P1;SDS_P2;PMS_P1;PMS_P2;Temp;Humidity;BMP_temperature;BMP_pressure;BME280_temperature;BME280_humidity;BME280_pressure;Samples;Min_cycle;Max_cycle;Signal;HPM_P1;HPM_P2
2022/01/28 00:01:04;;;;;;;24.23;11.73;;;2.20;99.90;;;;;;5090778;28;20195;-65
2022/01/28 00:03:31;;;;;;;24.13;10.23;;;2.20;99.90;;;;;;5087999;28;20195;-64
2022/01/28 00:05:57;;;;;;;25.30;11.27;;;2.20;99.90;;;;;;5070678;28;20185;-65
2022/01/28 00:08:23;;;;;;;22.87;11.37;;;2.20;99.90;;;;;;5091614;28;20228;-65
2022/01/28 00:10:51;;;;;;;24.77;11.63;;;2.20;99.90;;;;;;5091783;28;20176;-65
2022/01/28 00:13:27;;;;;;;25.27;11.83;;;2.20;99.90;;;;;;5091525;28;20677;-65
2022/01/28 00:40:15;;;;;;;25.27;10.97;;;2.30;99.90;;;;;;5095994;28;20866;-66
2022/01/28 00:42:41;;;;;;;26.97;12.63;;;2.30;99.90;;;;;;5095397;28;20271;-66
2022/01/28 00:45:07;;;;;;;25.00;11.67;;;2.30;99.90;;;;;;5095417;28;20647;-66
2022/01/28 00:47:33;;;;;;;27.23;11.27;;;2.30;99.90;;;;;;5094284;28;20648;-65
2022/01/28 00:49:58;;;;;;;23.30;11.67;;;2.30;99.90;;;;;;5095258;28;20189;-66
2022/01/28 00:52:24;;;;;;;24.67;10.60;;;2.30;99.90;;;;;;5095597;28;20203;-65
2022/01/28 00:54:49;;;;;;;22.43;10.80;;;2.30;99.90;;;;;;5095179;28;20184;-66
2022/01/28 00:57:15;;;;;;;25.73;11.93;;;2.30;99.90;;;;;;5093964;28;20643;-66
2022/01/28 00:59:40;;;;;;;24.67;11.43;;;2.30;99.90;;;;;;5094172;28;20574;-66
2022/01/28 01:02:06;;;;;;;22.00;10.27;;;2.30;99.90;;;;;;5094805;28;20188;-67
2022/01/28 01:04:32;;;;;;;23.93;10.17;;;2.30;99.90;;;;;;5095502;28;20260;-66
2022/01/28 01:06:57;;;;;;;22.90;11.43;;;2.30;99.90;;;;;;5094849;28;20557;-66
2022/01/28 01:09:23;;;;;;;24.73;11.17;;;2.30;99.90;;;;;;5094568;28;20258;-66
2022/01/28 01:11:48;;;;;;;24.40;11.33;;;2.30;99.90;;;;;;5095477;28;20176;-67
2022/01/28 01:14:14;;;;;;;23.30;11.40;;;2.30;99.90;;;;;;5094638;28;20180;-66
2022/01/28 01:19:27;;;;;;;26.67;11.17;;;2.20;99.90;;;;;;5095370;28;20190;-66
2022/01/28 01:21:58;;;;;;;27.27;11.23;;;2.20;99.90;;;;;;5095216;28;20180;-66
2022/01/28 01:24:26;;;;;;;25.20;10.93;;;2.20;99.90;;;;;;5095455;28;20188;-65
2022/01/28 01:26:52;;;;;;;22.57;10.97;;;2.20;99.90;;;;;;5094946;28;20204;-66
2022/01/28 01:29:20;;;;;;;22.70;12.07;;;2.20;99.90;;;;;;5093861;28;20192;-66
2022/01/28 01:31:47;;;;;;;25.35;11.27;;;2.20;99.90;;;;;;5095064;28;20520;-67
2022/01/28 01:36:38;;;;;;;24.27;11.47;;;2.20;99.90;;;;;;5095097;28;20188;-66
2022/01/28 01:39:07;;;;;;;23.87;11.17;;;2.20;99.90;;;;;;5095076;28;20176;-66
2022/01/28 01:41:38;;;;;;;22.73;10.20;;;2.20;99.90;;;;;;5094590;28;20647;-65
2022/01/28 01:44:16;;;;;;;24.60;10.77;;;2.20;99.90;;;;;;5093850;28;20285;-65
2022/01/28 01:52:06;;;;;;;21.40;10.57;;;2.20;99.90;;;;;;5094638;28;20545;-66
2022/01/28 01:54:41;;;;;;;19.80;9.97;;;2.30;99.90;;;;;;5095034;28;20180;-66
2022/01/28 01:57:09;;;;;;;21.37;10.00;;;2.30;99.90;;;;;;5094656;28;20248;-66
2022/01/28 01:59:36;;;;;;;22.02;10.43;;;2.30;99.90;;;;;;5094834;28;20605;-67
2022/01/28 02:02:02;;;;;;;18.43;9.80;;;2.30;99.90;;;;;;5094194;28;20245;-65
2022/01/28 02:04:28;;;;;;;18.20;9.87;;;2.30;99.90;;;;;;5094621;28;20266;-65
2022/01/28 02:06:55;;;;;;;21.87;10.50;;;2.30;99.90;;;;;;5094344;28;20653;-65
2022/01/28 02:09:20;;;;;;;25.97;11.03;;;2.30;99.90;;;;;;5094713;28;20510;-65
2022/01/28 02:11:46;;;;;;;25.38;12.52;;;2.30;99.90;;;;;;5092475;28;20199;-66
2022/01/28 02:14:11;;;;;;;25.73;11.33;;;2.30;99.90;;;;;;5094180;28;20176;-65
2022/01/28 02:16:37;;;;;;;25.07;11.33;;;2.30;99.90;;;;;;5093043;28;20180;-66
2022/01/28 02:19:03;;;;;;;27.13;12.00;;;2.30;99.90;;;;;;5094462;28;20183;-66
2022/01/28 02:21:42;;;;;;;21.70;10.37;;;2.30;99.90;;;;;;5094146;28;20164;-65
2022/01/28 02:24:08;;;;;;;23.70;10.97;;;2.30;99.90;;;;;;5094182;28;20187;-66
2022/01/28 02:26:36;;;;;;;22.80;11.07;;;2.40;99.90;;;;;;5092486;28;20208;-65
2022/01/28 02:29:08;;;;;;;21.40;11.10;;;2.40;99.90;;;;;;5094046;28;20218;-65
2022/01/28 02:31:34;;;;;;;27.67;12.40;;;2.40;99.90;;;;;;5093890;28;20290;-65
2022/01/28 02:34:00;;;;;;;22.93;11.33;;;2.40;99.90;;;;;;5093673;28;20269;-66
2022/01/28 02:36:26;;;;;;;21.33;11.13;;;2.50;99.90;;;;;;5093937;28;20313;-65
2022/01/28 02:38:57;;;;;;;23.93;11.67;;;2.40;99.90;;;;;;5093962;28;20677;-65
2022/01/28 02:41:26;;;;;;;23.33;10.97;;;2.40;99.90;;;;;;5094236;28;20172;-65
2022/01/28 02:44:16;;;;;;;29.70;12.07;;;2.40;99.90;;;;;;5093758;28;20183;-65
2022/01/28 02:46:55;;;;;;;20.63;11.17;;;2.40;99.90;;;;;;5093350;28;20657;-65
2022/01/28 02:49:21;;;;;;;25.20;11.23;;;2.40;99.90;;;;;;5093566;28;20175;-65
2022/01/28 02:51:46;;;;;;;23.30;11.80;;;2.40;99.90;;;;;;5093533;28;20504;-65
2022/01/28 02:54:15;;;;;;;22.63;11.03;;;2.40;99.90;;;;;;5093489;28;20187;-65
2022/01/28 02:56:48;;;;;;;25.13;11.97;;;2.40;99.90;;;;;;5093445;28;20209;-65
2022/01/28 02:59:14;;;;;;;26.20;12.13;;;2.40;99.90;;;;;;5091287;28;20640;-65
2022/01/28 03:01:39;;;;;;;26.73;12.73;;;2.40;99.90;;;;;;5084082;28;20248;-66
2022/01/28 03:04:07;;;;;;;22.83;11.93;;;2.40;99.90;;;;;;5093406;28;20168;-66
2022/01/28 03:06:32;;;;;;;28.03;12.30;;;2.40;99.90;;;;;;5093218;28;20291;-66
2022/01/28 03:09:02;;;;;;;27.60;12.40;;;2.40;99.90;;;;;;5092667;28;20184;-66
2022/01/28 03:16:54;;;;;;;22.53;11.60;;;2.50;99.90;;;;;;5071544;28;20173;-66
2022/01/28 03:19:23;;;;;;;25.03;12.03;;;2.50;99.90;;;;;;5084748;28;20188;-65
2022/01/28 03:22:00;;;;;;;26.90;12.20;;;2.50;99.90;;;;;;5092542;28;20623;-66
2022/01/28 03:24:27;;;;;;;24.60;11.77;;;2.50;99.90;;;;;;5093025;28;20567;-65
2022/01/28 03:27:00;;;;;;;21.57;11.10;;;2.50;99.90;;;;;;5093072;28;20195;-66
2022/01/28 03:29:26;;;;;;;24.83;11.07;;;2.50;99.90;;;;;;5092853;28;20450;-66
2022/01/28 03:31:51;;;;;;;24.33;10.90;;;2.50;99.90;;;;;;5091216;28;20538;-66
2022/01/28 03:34:17;;;;;;;26.77;12.10;;;2.60;99.90;;;;;;5093020;28;20172;-66
2022/01/28 03:36:43;;;;;;;26.23;11.57;;;2.60;99.90;;;;;;5092672;28;20255;-66
2022/01/28 03:39:10;;;;;;;23.67;10.93;;;2.60;99.90;;;;;;5091442;28;20222;-65
2022/01/28 03:41:36;;;;;;;23.30;10.82;;;2.70;99.90;;;;;;5092675;28;20519;-66
2022/01/28 03:44:01;;;;;;;23.10;11.10;;;2.60;99.90;;;;;;5092080;28;20176;-65
2022/01/28 03:46:28;;;;;;;20.50;10.77;;;2.60;99.90;;;;;;5091294;28;20180;-65
2022/01/28 03:48:55;;;;;;;21.70;10.07;;;2.60;99.90;;;;;;5092496;28;20188;-66
2022/01/28 03:51:21;;;;;;;26.17;12.07;;;2.60;99.90;;;;;;5092546;28;20313;-66
2022/01/28 03:53:47;;;;;;;23.40;11.30;;;2.60;99.90;;;;;;5092433;28;20650;-65
2022/01/28 03:56:13;;;;;;;21.93;10.63;;;2.60;99.90;;;;;;5092238;28;20184;-66
2022/01/28 03:58:38;;;;;;;24.57;11.77;;;2.60;99.90;;;;;;5092648;28;20245;-66
2022/01/28 04:01:10;;;;;;;23.77;11.93;;;2.50;99.90;;;;;;5092438;28;20264;-65
2022/01/28 04:13:52;;;;;;;23.63;11.63;;;2.50;99.90;;;;;;5092201;28;20628;-66
2022/01/28 04:16:31;;;;;;;25.33;11.47;;;2.40;99.90;;;;;;5092061;28;20171;-66
2022/01/28 04:18:57;;;;;;;29.17;11.57;;;2.40;99.90;;;;;;5091365;28;20184;-67
2022/01/28 04:21:23;;;;;;;23.93;11.27;;;2.50;99.90;;;;;;5092184;28;20172;-66
2022/01/28 04:23:49;;;;;;;23.50;11.77;;;2.50;99.90;;;;;;5091551;28;20265;-66
2022/01/28 04:26:14;;;;;;;25.23;10.83;;;2.50;99.90;;;;;;5091538;28;20203;-66
2022/01/28 04:28:40;;;;;;;23.63;11.37;;;2.50;99.90;;;;;;5092055;28;20547;-65
2022/01/28 04:31:06;;;;;;;25.63;12.20;;;2.60;99.90;;;;;;5091894;28;20188;-66
2022/01/28 04:33:32;;;;;;;31.07;12.50;;;2.60;99.90;;;;;;5091859;28;20238;-67
2022/01/28 04:35:57;;;;;;;26.10;12.20;;;2.60;99.90;;;;;;5090585;28;20709;-67
2022/01/28 04:38:47;;;;;;;24.10;11.73;;;2.60;99.90;;;;;;5092349;28;20206;-67
2022/01/28 04:41:24;;;;;;;27.70;12.67;;;2.60;99.90;;;;;;5090361;28;20182;-67
2022/01/28 04:43:57;;;;;;;27.70;12.03;;;2.60;99.90;;;;;;5091975;28;20179;-68
2022/01/28 04:51:54;;;;;;;28.33;11.80;;;2.60;99.90;;;;;;5090268;28;20180;-69
2022/01/28 05:02:30;;;;;;;28.67;13.20;;;2.50;99.90;;;;;;5091495;28;20179;-67
2022/01/28 05:07:16;;;;;;;25.87;12.10;;;2.50;99.90;;;;;;5090240;28;20231;-65
2022/01/28 05:28:23;;;;;;;25.67;11.83;;;2.40;99.90;;;;;;5095499;28;20281;-66
2022/01/28 05:30:49;;;;;;;26.57;11.67;;;2.40;99.90;;;;;;5094861;28;20636;-60
2022/01/28 05:33:15;;;;;;;26.40;10.57;;;2.40;99.90;;;;;;5095244;28;20263;-65
2022/01/28 05:35:41;;;;;;;25.87;12.20;;;2.40;99.90;;;;;;5094454;28;20191;-66
2022/01/28 05:38:06;;;;;;;27.93;12.80;;;2.40;99.90;;;;;;5093185;28;20647;-66
2022/01/28 05:40:32;;;;;;;34.07;12.47;;;2.40;99.90;;;;;;5094094;28;20176;-66
2022/01/28 05:42:57;;;;;;;30.60;11.90;;;2.40;99.90;;;;;;5094988;28;20263;-66
2022/01/28 05:45:23;;;;;;;29.80;11.87;;;2.40;99.90;;;;;;5095350;28;20579;-65
2022/01/28 05:47:48;;;;;;;27.77;12.63;;;2.50;99.90;;;;;;5095158;28;20220;-66
2022/01/28 05:50:14;;;;;;;25.87;11.77;;;2.40;99.90;;;;;;5095244;28;20530;-66
2022/01/28 05:52:39;;;;;;;27.13;12.63;;;2.50;99.90;;;;;;5095202;28;20176;-66
2022/01/28 05:55:06;;;;;;;29.37;10.90;;;2.50;99.90;;;;;;5095000;28;20204;-66
2022/01/28 05:57:31;;;;;;;24.27;11.77;;;2.50;99.90;;;;;;5095103;28;20714;-65
2022/01/28 05:59:57;;;;;;;29.70;13.67;;;2.50;99.90;;;;;;5095051;28;20267;-65
2022/01/28 06:02:22;;;;;;;28.87;12.60;;;2.50;99.90;;;;;;5093676;28;20184;-65
2022/01/28 06:04:48;;;;;;;25.63;11.47;;;2.50;99.90;;;;;;5094935;28;20184;-66
2022/01/28 06:07:14;;;;;;;29.80;12.77;;;2.50;99.90;;;;;;5094505;28;20238;-65
2022/01/28 06:09:39;;;;;;;25.47;12.03;;;2.50;99.90;;;;;;5094776;28;20644;-65
2022/01/28 06:12:06;;;;;;;31.73;12.80;;;2.50;99.90;;;;;;5094510;28;20183;-65
2022/01/28 06:14:31;;;;;;;31.47;12.43;;;2.50;99.90;;;;;;5094775;28;20237;-65
2022/01/28 06:16:57;;;;;;;30.97;12.30;;;2.50;99.90;;;;;;5094602;28;20172;-65
2022/01/28 06:19:22;;;;;;;30.27;12.70;;;2.50;99.90;;;;;;5094691;28;20184;-65
2022/01/28 06:21:48;;;;;;;30.60;11.83;;;2.50;99.90;;;;;;5094548;28;20180;-65
2022/01/28 06:24:13;;;;;;;25.73;12.13;;;2.50;99.90;;;;;;5094505;28;20237;-65
2022/01/28 06:26:40;;;;;;;27.23;12.50;;;2.50;99.90;;;;;;5094369;28;20212;-65
2022/01/28 06:29:06;;;;;;;31.93;12.90;;;2.50;99.90;;;;;;5094366;28;20203;-65
2022/01/28 06:31:32;;;;;;;29.27;12.87;;;2.50;99.90;;;;;;5094353;28;20234;-66
2022/01/28 06:33:57;;;;;;;30.07;13.17;;;2.50;99.90;;;;;;5093621;28;20522;-65
2022/01/28 06:36:23;;;;;;;26.20;13.47;;;2.50;99.90;;;;;;5094141;28;20172;-65
2022/01/28 06:38:49;;;;;;;26.73;12.57;;;2.50;99.90;;;;;;5094128;28;20183;-65
2022/01/28 06:41:15;;;;;;;30.03;13.20;;;2.50;99.90;;;;;;5094167;28;20215;-65
2022/01/28 06:43:40;;;;;;;29.10;13.07;;;2.60;99.90;;;;;;5093905;28;20208;-66
2022/01/28 06:46:06;;;;;;;32.57;13.20;;;2.60;99.90;;;;;;5093846;28;20222;-68
2022/01/28 06:48:31;;;;;;;30.40;12.97;;;2.60;99.90;;;;;;5094086;28;20216;-68
2022/01/28 06:50:57;;;;;;;34.10;13.73;;;2.60;99.90;;;;;;5093823;28;20266;-69
2022/01/28 06:53:22;;;;;;;29.83;13.10;;;2.60;99.90;;;;;;5093978;28;20531;-68
2022/01/28 06:55:48;;;;;;;26.52;12.07;;;2.70;99.90;;;;;;5093721;28;20207;-68
2022/01/28 06:58:14;;;;;;;30.67;13.03;;;2.70;99.90;;;;;;5093807;28;20207;-68
2022/01/28 07:00:40;;;;;;;29.20;13.45;;;2.70;99.90;;;;;;5093816;28;20172;-68
2022/01/28 07:03:10;;;;;;;32.10;13.43;;;2.70;99.90;;;;;;5093734;28;20187;-68
2022/01/28 07:05:36;;;;;;;41.47;15.25;;;2.70;99.90;;;;;;5093827;28;20229;-68
2022/01/28 07:08:03;;;;;;;27.97;12.13;;;2.70;99.90;;;;;;5075381;28;20322;-68
2022/01/28 07:10:29;;;;;;;28.70;11.97;;;2.70;99.90;;;;;;5093712;28;20168;-68
2022/01/28 07:12:54;;;;;;;28.40;11.93;;;2.70;99.90;;;;;;5093473;28;20662;-68
2022/01/28 07:15:23;;;;;;;28.02;12.57;;;2.80;99.90;;;;;;5093682;28;20502;-68
2022/01/28 07:17:49;;;;;;;28.40;12.33;;;2.80;99.90;;;;;;5093514;28;20208;-68
2022/01/28 07:20:14;;;;;;;33.47;13.00;;;2.80;99.90;;;;;;5093555;28;20203;-68
2022/01/28 07:22:40;;;;;;;28.67;12.50;;;2.80;99.90;;;;;;5093414;28;20256;-68
2022/01/28 07:25:06;;;;;;;31.67;13.63;;;2.80;99.90;;;;;;5093508;28;20186;-68
2022/01/28 07:27:32;;;;;;;27.67;11.07;;;2.80;99.90;;;;;;5093293;28;20224;-68
2022/01/28 07:29:57;;;;;;;31.93;12.33;;;2.80;99.90;;;;;;5093227;28;20175;-68
2022/01/28 07:32:24;;;;;;;26.70;11.23;;;2.90;99.90;;;;;;5093102;28;20226;-68
2022/01/28 07:34:49;;;;;;;28.43;12.27;;;2.90;99.90;;;;;;5093152;28;20217;-68
2022/01/28 07:37:15;;;;;;;28.90;12.63;;;2.90;99.90;;;;;;5093341;28;20176;-68
2022/01/28 07:39:40;;;;;;;30.05;12.32;;;2.90;99.90;;;;;;5093152;28;20229;-68
2022/01/28 07:42:06;;;;;;;27.00;12.43;;;2.90;99.90;;;;;;5092783;28;20176;-68
2022/01/28 07:44:32;;;;;;;24.43;11.47;;;2.90;99.90;;;;;;5093074;28;20173;-68
2022/01/28 07:46:57;;;;;;;31.33;12.60;;;2.90;99.90;;;;;;5092815;28;20207;-68
2022/01/28 07:49:23;;;;;;;27.63;11.57;;;3.00;99.90;;;;;;5092399;28;20184;-68
2022/01/28 07:51:48;;;;;;;27.23;12.60;;;3.00;99.90;;;;;;5091833;28;20172;-68
2022/01/28 07:54:14;;;;;;;26.90;11.40;;;3.00;99.90;;;;;;5092291;28;20263;-68
2022/01/28 07:56:40;;;;;;;24.43;11.60;;;3.00;99.90;;;;;;5090712;28;20179;-68
2022/01/28 07:59:05;;;;;;;26.95;11.70;;;3.10;99.90;;;;;;5092262;28;20863;-68
2022/01/28 08:01:31;;;;;;;26.05;11.02;;;3.10;99.90;;;;;;5092831;28;20601;-67
2022/01/28 08:03:57;;;;;;;25.87;11.37;;;3.10;99.90;;;;;;5092561;28;20168;-68
2022/01/28 08:06:22;;;;;;;28.13;11.30;;;3.10;99.90;;;;;;5092528;28;20176;-68
2022/01/28 08:08:48;;;;;;;23.98;11.55;;;3.10;99.90;;;;;;5091084;28;20281;-67
2022/01/28 08:11:13;;;;;;;27.03;11.37;;;3.10;99.90;;;;;;5092492;28;20187;-68
2022/01/28 08:13:39;;;;;;;27.05;11.60;;;3.20;99.90;;;;;;5092603;28;20647;-67
2022/01/28 08:16:05;;;;;;;25.70;11.53;;;3.20;99.90;;;;;;5092402;28;20182;-68
2022/01/28 08:18:31;;;;;;;25.13;10.57;;;3.20;99.90;;;;;;5092320;28;20249;-67
2022/01/28 08:20:58;;;;;;;24.37;11.20;;;3.10;99.90;;;;;;5092395;28;20164;-68
2022/01/28 08:23:24;;;;;;;29.27;11.40;;;3.20;99.90;;;;;;5092077;28;20733;-67
2022/01/28 08:25:53;;;;;;;21.77;10.43;;;3.30;99.90;;;;;;5091021;28;20210;-68
2022/01/28 08:28:19;;;;;;;25.33;11.23;;;3.30;99.90;;;;;;5092340;28;20243;-68
2022/01/28 08:30:45;;;;;;;23.42;10.65;;;3.30;99.90;;;;;;5092181;28;20212;-68
2022/01/28 08:33:10;;;;;;;21.35;10.52;;;3.30;99.90;;;;;;5092083;28;20189;-68
2022/01/28 08:35:39;;;;;;;24.53;10.33;;;3.30;99.90;;;;;;5092088;28;20168;-68
2022/01/28 08:38:14;;;;;;;22.40;10.00;;;3.30;99.90;;;;;;5092004;28;20188;-68
2022/01/28 08:40:40;;;;;;;25.27;10.35;;;3.40;99.90;;;;;;5092284;28;20230;-67
2022/01/28 08:43:06;;;;;;;23.77;10.25;;;3.40;99.90;;;;;;5092054;28;20176;-67
2022/01/28 08:45:31;;;;;;;24.40;10.40;;;3.50;99.90;;;;;;5092236;28;20267;-67
2022/01/28 08:47:57;;;;;;;18.67;9.65;;;3.60;99.90;;;;;;5091831;28;20204;-67
2022/01/28 08:50:23;;;;;;;26.27;11.13;;;3.80;99.90;;;;;;5092064;28;20255;-68
2022/01/28 08:52:48;;;;;;;20.92;10.27;;;3.80;99.90;;;;;;5092406;28;20176;-68
2022/01/28 08:55:15;;;;;;;22.88;10.00;;;3.90;99.90;;;;;;5091975;28;20195;-68
2022/01/28 08:57:43;;;;;;;20.88;9.75;;;3.90;99.90;;;;;;5093283;28;20175;-68
2022/01/28 09:00:14;;;;;;;23.67;10.60;;;3.90;99.90;;;;;;5095980;28;20512;-67
2022/01/28 09:02:41;;;;;;;21.35;9.85;;;3.80;99.90;;;;;;5096111;28;20211;-68
2022/01/28 09:05:07;;;;;;;24.17;10.38;;;3.80;99.90;;;;;;5095813;28;20259;-68
2022/01/28 09:07:33;;;;;;;23.30;10.95;;;3.80;99.90;;;;;;5095573;28;20699;-67
2022/01/28 09:10:09;;;;;;;21.92;10.02;;;3.80;99.90;;;;;;5095867;28;20191;-68
2022/01/28 09:12:39;;;;;;;19.83;9.15;;;3.80;99.90;;;;;;5095900;28;20642;-68
2022/01/28 09:15:07;;;;;;;21.55;10.32;;;3.80;99.90;;;;;;5095787;28;20180;-68
2022/01/28 09:17:32;;;;;;;19.75;9.48;;;3.80;99.90;;;;;;5094474;28;20175;-68
2022/01/28 09:19:58;;;;;;;25.17;11.13;;;3.90;99.90;;;;;;5095744;28;20508;-68
2022/01/28 09:22:24;;;;;;;19.85;9.80;;;3.90;99.90;;;;;;5095805;28;20183;-68
2022/01/28 09:24:50;;;;;;;24.15;9.30;;;3.90;99.90;;;;;;5095805;28;20582;-68
2022/01/28 09:27:16;;;;;;;22.80;10.13;;;4.00;99.90;;;;;;5095654;28;20299;-67
2022/01/28 09:29:41;;;;;;;24.67;10.23;;;4.00;99.90;;;;;;5095761;28;20225;-67
2022/01/28 09:32:08;;;;;;;22.83;10.43;;;4.00;99.90;;;;;;5095453;28;20176;-68
2022/01/28 09:34:33;;;;;;;21.83;10.25;;;4.00;99.90;;;;;;5095573;28;20180;-68
2022/01/28 09:36:59;;;;;;;21.85;9.75;;;4.00;99.90;;;;;;5095503;28;20772;-68
2022/01/28 09:39:24;;;;;;;26.10;9.50;;;4.00;99.90;;;;;;5095396;28;20537;-68
2022/01/28 09:41:52;;;;;;;23.80;11.00;;;4.10;99.90;;;;;;5095448;28;20172;-68
2022/01/28 09:44:18;;;;;;;21.93;9.53;;;4.20;99.90;;;;;;5095534;28;20265;-68
2022/01/28 09:46:44;;;;;;;17.92;9.80;;;4.20;99.90;;;;;;5095513;28;20220;-68
2022/01/28 09:49:11;;;;;;;25.33;10.25;;;4.20;99.90;;;;;;5094034;28;20674;-67
2022/01/28 09:51:37;;;;;;;22.15;10.93;;;4.30;99.90;;;;;;5095427;28;20259;-68
2022/01/28 09:54:03;;;;;;;19.10;9.48;;;4.30;99.90;;;;;;5095133;28;20704;-68
2022/01/28 09:56:30;;;;;;;18.50;8.45;;;4.40;99.90;;;;;;5095147;28;20619;-68
2022/01/28 09:58:56;;;;;;;18.85;9.63;;;4.40;99.90;;;;;;5095086;28;20218;-68
2022/01/28 10:01:21;;;;;;;17.65;8.35;;;4.50;99.90;;;;;;5095163;28;20176;-68
2022/01/28 10:04:04;;;;;;;15.27;8.40;;;4.50;99.90;;;;;;5094901;28;20267;-68
2022/01/28 10:06:35;;;;;;;19.27;9.32;;;4.60;99.90;;;;;;5094755;28;20194;-68
2022/01/28 10:09:09;;;;;;;19.27;9.15;;;4.60;99.90;;;;;;5093580;28;20271;-68
2022/01/28 10:11:40;;;;;;;20.10;8.90;;;4.70;99.90;;;;;;5094829;28;20187;-68
2022/01/28 10:14:15;;;;;;;19.52;9.55;;;4.70;99.90;;;;;;5094513;28;20720;-67
2022/01/28 10:16:40;;;;;;;15.95;8.52;;;4.70;99.90;;;;;;5094922;28;20259;-68
2022/01/28 10:19:09;;;;;;;17.77;8.70;;;4.70;99.90;;;;;;5094584;28;20258;-68
2022/01/28 10:21:38;;;;;;;19.10;9.13;;;4.70;99.90;;;;;;5094663;28;20200;-68
2022/01/28 10:24:21;;;;;;;19.77;8.82;;;4.60;99.90;;;;;;5094391;28;20184;-68
2022/01/28 10:26:52;;;;;;;20.35;8.57;;;4.60;99.90;;;;;;5094504;28;20207;-67
2022/01/28 10:29:19;;;;;;;20.52;9.32;;;4.60;99.90;;;;;;5094600;28;20184;-68
2022/01/28 10:31:52;;;;;;;19.77;9.20;;;4.70;99.90;;;;;;5094507;28;20561;-67
2022/01/28 10:34:35;;;;;;;20.70;9.27;;;4.90;99.90;;;;;;5094438;28;20686;-67
2022/01/28 10:37:09;;;;;;;20.00;8.40;;;5.20;99.90;;;;;;5094370;28;20179;-67
2022/01/28 10:40:03;;;;;;;17.83;8.98;;;5.50;99.90;;;;;;5094340;28;20176;-68
2022/01/28 10:42:29;;;;;;;15.75;7.90;;;5.80;99.90;;;;;;5088155;28;20188;-68
2022/01/28 10:45:02;;;;;;;18.55;8.75;;;5.80;99.90;;;;;;5094115;28;20539;-67
2022/01/28 10:47:39;;;;;;;17.27;8.60;;;5.50;99.90;;;;;;5094500;28;20216;-67
2022/01/28 10:50:20;;;;;;;15.88;8.40;;;5.50;99.90;;;;;;5094009;28;20250;-68
2022/01/28 10:52:48;;;;;;;17.23;8.40;;;5.50;99.90;;;;;;5094041;28;20221;-67
2022/01/28 10:55:18;;;;;;;17.27;8.98;;;5.50;99.90;;;;;;5094147;28;20532;-68
2022/01/28 10:58:09;;;;;;;17.50;8.98;;;5.40;99.90;;;;;;5094032;28;20606;-68
2022/01/28 11:00:40;;;;;;;16.25;8.45;;;5.30;99.90;;;;;;5093896;28;20670;-68
2022/01/28 11:03:09;;;;;;;17.55;8.73;;;5.20;99.90;;;;;;5093695;28;20655;-68
2022/01/28 11:05:37;;;;;;;16.85;8.27;;;5.10;99.90;;;;;;5093793;28;20647;-68
2022/01/28 11:08:05;;;;;;;18.20;7.80;;;5.00;99.90;;;;;;5093385;28;20703;-68
2022/01/28 11:10:31;;;;;;;18.33;8.77;;;4.90;99.90;;;;;;5093765;28;20172;-68
2022/01/28 11:12:58;;;;;;;17.90;7.95;;;4.90;99.90;;;;;;5093710;28;20180;-68
2022/01/28 11:15:24;;;;;;;18.45;8.52;;;5.20;99.90;;;;;;5093838;28;20193;-68
2022/01/28 11:17:51;;;;;;;14.32;8.13;;;5.60;99.90;;;;;;5093672;28;20257;-68
2022/01/28 11:20:24;;;;;;;21.83;7.88;;;5.80;99.90;;;;;;5093213;28;20253;-68
2022/01/28 11:23:10;;;;;;;16.05;8.27;;;6.00;99.90;;;;;;5093858;28;20180;-68
2022/01/28 11:25:55;;;;;;;15.38;7.93;;;6.10;99.90;;;;;;5093573;28;20180;-68
2022/01/28 11:28:44;;;;;;;15.52;9.10;;;6.10;99.90;;;;;;5093271;28;20380;-68
2022/01/28 11:31:11;;;;;;;16.80;7.47;;;6.10;99.90;;;;;;5093634;28;20223;-68
2022/01/28 11:33:49;;;;;;;14.05;7.63;;;6.20;99.90;;;;;;5093402;28;20188;-68
2022/01/28 11:36:34;;;;;;;13.90;7.22;;;6.20;99.90;;;;;;5093167;28;20183;-68
2022/01/28 11:39:27;;;;;;;18.73;8.98;;;6.30;99.90;;;;;;5093158;28;20237;-68
2022/01/28 11:42:08;;;;;;;13.35;7.80;;;6.50;99.90;;;;;;5093131;28;20172;-68
2022/01/28 11:44:51;;;;;;;17.30;8.38;;;6.60;99.90;;;;;;5093065;28;20172;-68
2022/01/28 11:47:21;;;;;;;16.20;8.10;;;6.80;99.90;;;;;;5092134;28;20678;-68
2022/01/28 11:50:07;;;;;;;17.25;8.93;;;6.70;99.90;;;;;;5092955;28;20647;-68
2022/01/28 11:52:39;;;;;;;20.92;8.25;;;6.70;99.90;;;;;;5093024;28;20658;-68
2022/01/28 11:55:14;;;;;;;18.42;9.38;;;6.70;99.90;;;;;;5092776;28;20249;-68
2022/01/28 11:57:57;;;;;;;18.02;8.60;;;6.80;99.90;;;;;;5091579;28;20635;-69
2022/01/28 12:00:24;;;;;;;19.75;8.57;;;7.00;99.90;;;;;;5093024;28;20172;-68
2022/01/28 12:02:52;;;;;;;16.23;8.48;;;7.00;99.90;;;;;;5092828;28;20188;-69
2022/01/28 12:05:29;;;;;;;14.20;8.07;;;7.10;99.90;;;;;;5092830;28;20222;-68
2022/01/28 12:08:03;;;;;;;15.73;7.72;;;7.30;99.90;;;;;;5092400;28;20654;-69
2022/01/28 12:10:31;;;;;;;13.57;6.97;;;7.50;99.90;;;;;;5092768;28;20699;-68
2022/01/28 12:13:11;;;;;;;15.63;8.05;;;7.50;99.90;;;;;;5091428;28;20206;-69
2022/01/28 12:16:00;;;;;;;13.27;7.70;;;7.40;99.90;;;;;;5092805;28;20647;-68
2022/01/28 12:18:47;;;;;;;17.13;8.10;;;7.40;99.90;;;;;;5092443;28;20657;-68
2022/01/28 12:21:14;;;;;;;18.30;8.35;;;7.30;99.90;;;;;;5081509;28;20218;-68
2022/01/28 12:23:39;;;;;;;17.00;7.82;;;7.00;99.90;;;;;;5092564;28;20176;-68
2022/01/28 12:26:06;;;;;;;19.00;8.30;;;6.80;99.90;;;;;;5092532;28;20241;-67
2022/01/28 12:28:31;;;;;;;16.65;7.97;;;6.60;99.90;;;;;;5092565;28;20227;-67
2022/01/28 12:30:59;;;;;;;20.08;9.23;;;6.40;99.90;;;;;;5092469;28;20181;-68
2022/01/28 12:33:28;;;;;;;18.75;8.63;;;6.20;99.90;;;;;;5091761;28;20172;-68
2022/01/28 12:35:57;;;;;;;18.88;9.45;;;6.30;99.90;;;;;;5092355;28;20634;-68
2022/01/28 12:38:28;;;;;;;15.93;8.65;;;6.20;99.90;;;;;;5092487;28;20180;-68
2022/01/28 12:40:54;;;;;;;22.75;11.23;;;6.00;99.90;;;;;;5091310;28;20191;-68
2022/01/28 12:43:23;;;;;;;19.67;10.13;;;5.90;99.90;;;;;;5092275;28;20179;-68
2022/01/28 12:46:03;;;;;;;24.10;11.60;;;5.80;99.90;;;;;;5092096;28;20607;-68
2022/01/28 12:48:29;;;;;;;21.35;9.45;;;5.90;99.90;;;;;;5092448;28;20509;-68
2022/01/28 12:50:56;;;;;;;17.88;8.10;;;6.00;99.90;;;;;;5090787;28;20634;-67
2022/01/28 12:53:35;;;;;;;15.98;7.70;;;6.10;99.90;;;;;;5092220;28;20176;-68
2022/01/28 12:56:01;;;;;;;16.67;9.45;;;6.10;99.90;;;;;;5092005;28;20512;-68
2022/01/28 12:58:38;;;;;;;17.73;10.77;;;6.30;99.90;;;;;;5092220;28;20614;-66
2022/01/28 13:01:09;;;;;;;16.30;7.68;;;6.40;99.90;;;;;;5092224;28;20533;-66
2022/01/28 13:03:54;;;;;;;15.00;7.30;;;6.40;99.90;;;;;;5092190;28;20183;-68
2022/01/28 13:09:09;;;;;;;12.95;7.00;;;6.30;99.90;;;;;;5051747;28;20565;-69
2022/01/28 13:11:43;;;;;;;13.98;6.75;;;6.20;99.90;;;;;;5051794;28;20648;-68
2022/01/28 13:14:10;;;;;;;14.52;6.47;;;6.20;99.90;;;;;;5051693;28;20189;-66
2022/01/28 13:16:38;;;;;;;17.02;7.85;;;6.10;99.90;;;;;;5051663;28;20178;-67
2022/01/28 13:19:06;;;;;;;15.52;7.18;;;6.10;99.90;;;;;;5051518;28;20645;-67
2022/01/28 13:21:33;;;;;;;14.20;7.13;;;6.10;99.90;;;;;;5051632;28;20517;-67
2022/01/28 13:24:07;;;;;;;14.55;7.43;;;6.00;99.90;;;;;;5051619;28;20177;-67
2022/01/28 13:26:33;;;;;;;16.25;7.60;;;5.90;99.90;;;;;;5051575;28;20176;-67
2022/01/28 13:29:10;;;;;;;13.32;7.35;;;5.90;99.90;;;;;;5050359;28;20186;-67
2022/01/28 13:31:37;;;;;;;14.45;7.85;;;5.90;99.90;;;;;;5051609;28;20252;-67
2022/01/28 13:34:05;;;;;;;14.18;7.50;;;5.90;99.90;;;;;;5051541;28;20534;-67
2022/01/28 13:36:48;;;;;;;16.45;7.25;;;6.00;99.90;;;;;;5051601;28;20204;-67
2022/01/28 13:39:22;;;;;;;15.50;7.47;;;6.00;99.90;;;;;;5051499;28;20170;-67
2022/01/28 13:42:05;;;;;;;17.65;7.30;;;6.00;99.90;;;;;;5051288;28;20193;-67
2022/01/28 13:44:33;;;;;;;9.68;6.20;;;6.00;99.90;;;;;;5053712;28;20176;-68
2022/01/28 13:47:01;;;;;;;12.38;6.20;;;6.00;99.90;;;;;;5054960;28;20231;-67
2022/01/28 13:49:29;;;;;;;13.07;6.20;;;6.00;99.90;;;;;;5055159;28;20177;-67
2022/01/28 13:52:15;;;;;;;11.60;6.15;;;6.10;99.90;;;;;;5054737;28;20684;-67
2022/01/28 13:54:41;;;;;;;14.05;6.63;;;6.10;99.90;;;;;;5054936;28;20189;-67
2022/01/28 13:57:08;;;;;;;11.13;5.90;;;6.10;99.90;;;;;;5054647;28;20751;-68
2022/01/28 13:59:35;;;;;;;10.48;5.70;;;6.10;99.90;;;;;;5054695;28;20660;-67
2022/01/28 14:02:02;;;;;;;13.77;6.47;;;6.10;99.90;;;;;;5054589;28;20185;-67
2022/01/28 14:04:35;;;;;;;10.63;5.20;;;6.10;99.90;;;;;;5054685;28;20208;-68
2022/01/28 14:07:18;;;;;;;15.60;8.50;;;6.00;99.90;;;;;;5064079;28;20255;-67
2022/01/28 14:09:45;;;;;;;13.27;6.78;;;6.00;99.90;;;;;;5093506;28;20233;-67
2022/01/28 14:12:38;;;;;;;10.50;5.75;;;6.00;99.90;;;;;;5094678;28;20666;-67
2022/01/28 14:15:26;;;;;;;9.05;5.32;;;6.10;99.90;;;;;;5093383;28;20242;-67
2022/01/28 14:17:52;;;;;;;12.77;5.38;;;6.10;99.90;;;;;;5094636;28;20168;-67